Serifos, Greece
Current Conditions -  °F | °C
As of 8:50 PM on Monday 22 Dec 2014 (Local Time) from LGMK Reporting Station
Few Clouds Few Clouds  
Wind Chill: 41°   Ceiling: Unl
Heat Index: 46°   Visibility: 6mi
Dew Point: 36°   Wind: 12mph
Humidity: 66%   Direction: 360°N
Pressure: 30.3"   Gusts: 23mph
Location:  37.15°N, 24.5°E
Report Text: LGMK 221750Z 36010G20KT 9999 FEW020 08/02 Q1026
Loading
Personal Weather Stations






























Interactive Weather Map New forecast layout! Learn more

10-Day Weather Forecast

Advertisements
Track Severe Weather on mobile